Time;durP1;ratioP1;P1;durP2;ratioP2;P2;SDS_P1;SDS_P2;PMS_P1;PMS_P2;Temp;Humidity;BMP_temperature;BMP_pressure;BME280_temperature;BME280_humidity;BME280_pressure;Samples;Min_cycle;Max_cycle;Signal;HPM_P1;HPM_P2
2023/02/22 00:01:49;;;;;;;48.13;24.93;;;;;;;8.69;100.00;101704.69;4979287;28;20588;-67
2023/02/22 00:04:18;;;;;;;48.87;23.17;;;;;;;8.64;100.00;101699.41;4983109;28;20203;-68
2023/02/22 00:06:44;;;;;;;48.00;24.13;;;;;;;8.67;100.00;101702.06;4985756;28;20195;-68
2023/02/22 00:09:10;;;;;;;48.20;24.87;;;;;;;8.65;100.00;101690.94;4983884;28;20195;-67
2023/02/22 00:11:37;;;;;;;48.50;25.27;;;;;;;8.67;100.00;101691.00;4979028;28;20708;-68
2023/02/22 00:14:03;;;;;;;50.70;25.07;;;;;;;8.63;100.00;101690.03;4986546;28;20191;-67
2023/02/22 00:16:29;;;;;;;50.47;24.90;;;;;;;8.65;100.00;101687.50;4983745;28;20215;-67
2023/02/22 00:18:55;;;;;;;50.00;25.30;;;;;;;8.66;100.00;101690.13;4983804;28;20240;-69
2023/02/22 00:21:21;;;;;;;48.83;24.10;;;;;;;8.67;100.00;101688.44;4983262;28;20248;-67
2023/02/22 00:23:47;;;;;;;48.17;25.40;;;;;;;8.66;100.00;101686.72;4981499;28;20203;-68
2023/02/22 00:26:19;;;;;;;48.40;24.37;;;;;;;8.66;100.00;101685.00;4984601;28;20278;-67
2023/02/22 00:28:47;;;;;;;40.93;21.13;;;;;;;8.63;100.00;101682.38;4981358;28;20191;-68
2023/02/22 00:31:13;;;;;;;44.13;21.07;;;;;;;8.62;100.00;101684.84;4983467;28;20238;-69
2023/02/22 00:33:40;;;;;;;32.87;16.07;;;;;;;8.61;100.00;101683.13;4980775;28;20959;-69
2023/02/22 00:36:06;;;;;;;31.87;15.83;;;;;;;8.57;100.00;101676.97;4986064;28;20278;-68
2023/02/22 00:38:31;;;;;;;25.37;14.80;;;;;;;8.58;100.00;101676.19;4979320;28;20215;-68
2023/02/22 00:40:57;;;;;;;25.80;13.47;;;;;;;8.57;100.00;101678.69;4986972;28;20592;-68
2023/02/22 00:43:23;;;;;;;21.87;11.13;;;;;;;8.54;100.00;101676.88;4982544;28;20193;-68
2023/02/22 00:45:49;;;;;;;26.07;11.27;;;;;;;8.56;100.00;101682.03;4991137;28;20601;-69
2023/02/22 00:48:16;;;;;;;23.57;10.63;;;;;;;8.55;100.00;101680.28;4983402;28;20222;-68
2023/02/22 00:50:43;;;;;;;20.07;9.47;;;;;;;8.53;100.00;101684.47;4983827;28;20254;-69
2023/02/22 00:53:10;;;;;;;18.87;9.47;;;;;;;8.50;100.00;101676.69;4982755;28;20212;-68
2023/02/22 00:55:36;;;;;;;20.90;9.60;;;;;;;8.50;100.00;101684.34;4988202;28;20213;-69
2023/02/22 00:58:04;;;;;;;20.10;8.33;;;;;;;8.51;100.00;101680.97;4984792;28;20203;-68
2023/02/22 01:00:35;;;;;;;17.70;8.07;;;;;;;8.48;100.00;101684.25;4987715;28;20202;-68
2023/02/22 01:03:03;;;;;;;21.37;8.27;;;;;;;8.46;100.00;101675.69;4985860;28;20632;-68
2023/02/22 01:05:30;;;;;;;19.43;8.60;;;;;;;8.46;100.00;101675.69;4986315;28;20243;-68
2023/02/22 01:07:57;;;;;;;23.97;10.17;;;;;;;8.46;100.00;101673.13;4986268;28;20238;-67
2023/02/22 01:10:25;;;;;;;20.30;9.77;;;;;;;8.48;100.00;101678.31;4986570;28;20607;-69
2023/02/22 01:12:51;;;;;;;24.37;11.47;;;;;;;8.47;100.00;101671.47;4987316;28;20993;-68
2023/02/22 01:15:20;;;;;;;23.13;11.60;;;;;;;8.44;100.00;101672.19;4986836;28;20199;-67
2023/02/22 01:17:47;;;;;;;26.20;12.20;;;;;;;8.41;100.00;101669.53;4989753;28;20196;-69
2023/02/22 01:20:13;;;;;;;28.03;13.63;;;;;;;8.42;100.00;101676.38;4982570;28;20358;-68
2023/02/22 01:22:44;;;;;;;29.13;13.70;;;;;;;8.41;100.00;101678.84;4986715;28;20187;-67
2023/02/22 01:25:14;;;;;;;31.60;15.23;;;;;;;8.39;100.00;101681.34;4985015;28;20634;-69
2023/02/22 01:27:40;;;;;;;29.47;14.90;;;;;;;8.41;100.00;101673.75;4986973;28;20265;-68
2023/02/22 01:30:07;;;;;;;29.00;15.13;;;;;;;8.39;100.00;101678.78;4987012;28;20582;-69
2023/02/22 01:32:38;;;;;;;31.33;15.43;;;;;;;8.42;100.00;101670.38;4984483;28;20624;-69
2023/02/22 01:35:12;;;;;;;35.20;16.00;;;;;;;8.41;100.00;101674.63;4979916;28;20247;-69
2023/02/22 01:37:38;;;;;;;31.23;15.90;;;;;;;8.41;100.00;101666.09;4997678;28;20205;-69
2023/02/22 01:40:07;;;;;;;29.67;15.13;;;;;;;8.39;100.00;101681.34;4981253;28;20215;-68
2023/02/22 01:42:33;;;;;;;30.70;15.27;;;;;;;8.39;100.00;101666.03;4981901;28;20243;-68
2023/02/22 01:45:29;;;;;;;30.10;15.17;;;;;;;8.40;100.00;101665.25;4981868;28;20200;-69
2023/02/22 01:48:00;;;;;;;31.50;15.47;;;;;;;8.37;100.00;101654.91;5004199;28;20190;-66
2023/02/22 01:50:26;;;;;;;30.10;14.97;;;;;;;8.36;100.00;101660.81;4986641;28;20195;-68
2023/02/22 01:52:52;;;;;;;28.30;13.90;;;;;;;8.37;100.00;101664.22;4986438;28;20196;-68
2023/02/22 01:55:18;;;;;;;28.07;14.50;;;;;;;8.34;100.00;101652.22;4988791;28;20191;-65
2023/02/22 01:57:45;;;;;;;26.40;12.63;;;;;;;8.32;100.00;101651.28;4985059;28;20284;-69
2023/02/22 02:00:15;;;;;;;24.30;12.30;;;;;;;8.31;100.00;101648.66;4999299;28;20216;-68
2023/02/22 02:02:44;;;;;;;25.67;12.63;;;;;;;8.31;100.00;101657.22;5004223;28;20298;-67
2023/02/22 02:05:12;;;;;;;25.33;12.17;;;;;;;8.32;100.00;101650.41;4984202;28;20192;-66
2023/02/22 02:07:39;;;;;;;27.17;13.83;;;;;;;8.32;100.00;101646.19;4989177;28;20313;-69
2023/02/22 02:10:13;;;;;;;24.63;12.57;;;;;;;8.31;100.00;101648.66;4986993;28;20188;-68
2023/02/22 02:12:44;;;;;;;24.30;11.53;;;;;;;8.34;100.00;101641.16;4982721;28;20235;-66
2023/02/22 02:15:27;;;;;;;21.40;11.63;;;;;;;8.31;100.00;101644.44;4981907;28;20666;-69
2023/02/22 02:17:55;;;;;;;22.73;10.67;;;;;;;8.30;100.00;101642.69;4990295;28;20192;-68
2023/02/22 02:20:31;;;;;;;21.00;10.23;;;;;;;8.28;100.00;101633.22;4983314;28;20192;-69
2023/02/22 02:23:12;;;;;;;23.20;10.37;;;;;;;8.25;100.00;101628.88;4987517;28;20283;-66
2023/02/22 02:25:57;;;;;;;19.03;9.83;;;;;;;8.26;100.00;101633.19;4983232;28;20298;-68
2023/02/22 02:28:37;;;;;;;20.97;10.13;;;;;;;8.25;100.00;101636.53;5000654;28;20200;-69
2023/02/22 02:31:27;;;;;;;17.63;8.47;;;;;;;8.26;100.00;101629.75;4985290;28;20216;-70
2023/02/22 02:34:16;;;;;;;22.33;8.63;;;;;;;8.27;100.00;101631.50;4985507;28;20211;-66
2023/02/22 02:36:51;;;;;;;19.50;9.00;;;;;;;8.26;100.00;101633.19;4987124;28;20188;-68
2023/02/22 02:39:38;;;;;;;19.00;8.97;;;;;;;8.26;100.00;101632.31;4981977;28;20282;-66
2023/02/22 02:42:10;;;;;;;20.87;9.20;;;;;;;8.25;100.00;101630.56;4985179;28;20692;-68
2023/02/22 02:44:46;;;;;;;21.53;9.37;;;;;;;8.25;100.00;101628.03;4987994;28;20208;-68
2023/02/22 02:47:18;;;;;;;18.07;8.57;;;;;;;8.25;100.00;101621.22;4985117;28;20665;-68
2023/02/22 02:49:54;;;;;;;18.33;8.60;;;;;;;8.25;100.00;101622.91;4985136;28;20283;-68
2023/02/22 02:52:23;;;;;;;20.53;9.43;;;;;;;8.24;100.00;101619.47;4982167;28;20211;-67
2023/02/22 02:54:50;;;;;;;19.93;9.63;;;;;;;8.24;100.00;101618.63;4989426;28;20209;-69
2023/02/22 02:57:15;;;;;;;18.50;9.00;;;;;;;8.26;100.00;101620.44;4983497;28;20275;-69
2023/02/22 02:59:41;;;;;;;19.30;9.23;;;;;;;8.26;100.00;101614.44;4983992;28;20311;-68
2023/02/22 03:02:13;;;;;;;19.67;9.30;;;;;;;8.27;100.00;101613.63;4986179;28;20215;-68
2023/02/22 03:05:05;;;;;;;23.83;9.93;;;;;;;8.21;100.00;101610.84;4984403;28;20200;-68
2023/02/22 03:07:50;;;;;;;20.63;9.33;;;;;;;8.22;100.00;101602.38;4988528;28;20266;-69
2023/02/22 03:10:32;;;;;;;15.97;8.13;;;;;;;8.19;100.00;101605.63;4985679;28;20243;-69
2023/02/22 03:13:24;;;;;;;22.60;8.73;;;;;;;8.20;100.00;101601.41;4984849;28;20578;-68
2023/02/22 03:16:09;;;;;;;19.87;9.17;;;;;;;8.20;100.00;101596.31;4981535;28;20203;-68
2023/02/22 03:18:57;;;;;;;16.60;9.20;;;;;;;8.20;100.00;101594.66;4984804;28;20247;-68
2023/02/22 03:21:47;;;;;;;20.57;9.70;;;;;;;8.18;100.00;101590.25;4981589;28;20231;-69
2023/02/22 03:24:41;;;;;;;20.50;9.20;;;;;;;8.19;100.00;101595.44;5002934;28;20202;-68
2023/02/22 03:27:26;;;;;;;23.30;9.97;;;;;;;8.17;100.00;101583.44;4984304;28;20211;-69
2023/02/22 03:29:59;;;;;;;26.83;10.23;;;;;;;8.16;100.00;101585.09;4981235;28;20192;-67
2023/02/22 03:32:32;;;;;;;24.20;10.20;;;;;;;8.15;100.00;101588.47;4983153;28;20208;-68
2023/02/22 03:35:05;;;;;;;21.93;10.20;;;;;;;8.16;100.00;101585.09;4987307;28;20289;-68
2023/02/22 03:37:38;;;;;;;29.00;10.73;;;;;;;8.16;100.00;101586.78;4982458;28;20196;-67
2023/02/22 03:40:13;;;;;;;22.57;9.80;;;;;;;8.18;100.00;101582.63;4984369;28;20620;-68
2023/02/22 03:42:49;;;;;;;24.23;11.50;;;;;;;8.17;100.00;101585.97;4983699;28;20278;-68
2023/02/22 03:45:20;;;;;;;28.50;10.77;;;;;;;8.16;100.00;101585.09;4965773;28;20188;-66
2023/02/22 03:47:50;;;;;;;31.17;12.23;;;;;;;8.16;100.00;101582.53;4986795;28;20880;-67
2023/02/22 03:50:25;;;;;;;22.80;10.77;;;;;;;8.16;100.00;101586.78;4983993;28;20189;-68
2023/02/22 03:52:51;;;;;;;24.87;11.90;;;;;;;8.16;100.00;101584.25;4983298;28;20191;-68
2023/02/22 03:55:22;;;;;;;22.17;11.53;;;;;;;8.15;100.00;101585.06;4981839;28;20188;-68
2023/02/22 03:57:54;;;;;;;26.37;11.60;;;;;;;8.15;100.00;101585.91;4987998;28;20250;-69
2023/02/22 04:00:23;;;;;;;27.10;12.27;;;;;;;8.16;100.00;101586.78;4982099;28;20199;-68
2023/02/22 04:02:49;;;;;;;25.43;12.87;;;;;;;8.15;100.00;101587.59;4985693;28;20219;-69
2023/02/22 04:05:18;;;;;;;31.90;13.40;;;;;;;8.16;100.00;101581.69;4980397;28;20192;-68
2023/02/22 04:07:44;;;;;;;25.60;12.07;;;;;;;8.16;100.00;101582.53;4984357;28;20190;-69
2023/02/22 04:10:12;;;;;;;26.80;13.03;;;;;;;8.14;100.00;101588.41;4983499;28;20226;-67
2023/02/22 04:12:38;;;;;;;29.20;13.07;;;;;;;8.16;100.00;101584.25;4986772;28;20218;-67
2023/02/22 04:15:06;;;;;;;28.67;13.83;;;;;;;8.15;100.00;101593.56;4970024;28;20563;-68
2023/02/22 04:17:32;;;;;;;32.60;13.03;;;;;;;8.15;100.00;101582.50;4986053;28;20751;-69
2023/02/22 04:19:58;;;;;;;36.10;14.10;;;;;;;8.14;100.00;101585.84;4982671;28;20735;-67
2023/02/22 04:22:27;;;;;;;34.13;14.30;;;;;;;8.12;100.00;101593.47;4979652;28;20220;-68
2023/02/22 04:24:53;;;;;;;33.17;14.87;;;;;;;8.12;100.00;101596.00;4986303;28;20218;-65
2023/02/22 04:27:19;;;;;;;38.00;17.10;;;;;;;8.12;100.00;101598.56;4967534;28;20193;-66
2023/02/22 04:29:45;;;;;;;41.13;17.90;;;;;;;8.12;100.00;101592.56;4984869;28;20193;-67
2023/02/22 04:32:10;;;;;;;44.47;17.17;;;;;;;8.11;100.00;101593.38;4983551;28;20212;-68
2023/02/22 04:34:36;;;;;;;40.57;17.67;;;;;;;8.11;100.00;101591.69;4984945;28;20211;-68
2023/02/22 04:37:02;;;;;;;40.33;18.07;;;;;;;8.13;100.00;101594.31;4982899;28;20222;-68
2023/02/22 04:39:28;;;;;;;43.80;17.17;;;;;;;8.12;100.00;101590.03;4987455;28;20298;-68
2023/02/22 04:41:53;;;;;;;42.13;16.90;;;;;;;8.14;100.00;101588.41;4987675;28;20354;-67
2023/02/22 04:44:19;;;;;;;41.43;17.07;;;;;;;8.13;100.00;101590.09;4984455;28;20195;-69
2023/02/22 04:46:45;;;;;;;40.50;18.53;;;;;;;8.11;100.00;101589.13;4986539;28;20971;-69
2023/02/22 04:49:12;;;;;;;36.83;17.17;;;;;;;8.13;100.00;101590.09;4978751;28;20660;-68
2023/02/22 04:51:41;;;;;;;47.10;18.50;;;;;;;8.15;100.00;101587.59;4995443;28;20719;-67
2023/02/22 04:54:09;;;;;;;42.40;17.37;;;;;;;8.14;100.00;101579.06;4977913;28;20193;-69
2023/02/22 04:56:36;;;;;;;43.40;17.83;;;;;;;8.14;100.00;101589.28;4964815;28;20212;-68
2023/02/22 04:59:02;;;;;;;42.87;18.27;;;;;;;8.14;100.00;101583.28;4984101;28;20211;-67
2023/02/22 05:01:35;;;;;;;43.77;18.47;;;;;;;8.14;100.00;101583.28;4980813;28;20788;-68
2023/02/22 05:04:02;;;;;;;44.57;17.47;;;;;;;8.14;100.00;101580.75;4984763;28;20784;-68
2023/02/22 05:06:28;;;;;;;45.00;18.53;;;;;;;8.12;100.00;101575.59;4984207;28;22033;-68
2023/02/22 05:08:53;;;;;;;41.37;18.17;;;;;;;8.12;100.00;101572.16;4983038;28;20192;-67
2023/02/22 05:11:19;;;;;;;41.00;17.80;;;;;;;8.13;100.00;101573.91;4976932;28;20224;-69
2023/02/22 05:13:45;;;;;;;45.40;18.27;;;;;;;8.12;100.00;101579.81;4982921;28;20654;-67
2023/02/22 05:16:11;;;;;;;40.00;17.00;;;;;;;8.10;100.00;101577.19;4981577;28;20211;-69
2023/02/22 05:18:36;;;;;;;42.53;17.00;;;;;;;8.11;100.00;101570.44;4980272;28;20219;-68
2023/02/22 05:21:02;;;;;;;44.43;17.70;;;;;;;8.12;100.00;101572.16;4985978;28;20681;-69
2023/02/22 05:23:27;;;;;;;37.43;16.60;;;;;;;8.12;100.00;101572.16;4981317;28;20687;-68
2023/02/22 05:25:52;;;;;;;40.10;16.83;;;;;;;8.11;100.00;101581.50;4985061;28;20686;-69
2023/02/22 05:28:18;;;;;;;40.20;16.30;;;;;;;8.12;100.00;101573.06;4981965;28;20776;-69
2023/02/22 05:30:44;;;;;;;44.70;15.70;;;;;;;8.13;100.00;101574.78;4989666;28;20299;-69
2023/02/22 05:33:10;;;;;;;37.20;15.33;;;;;;;8.13;100.00;101567.13;4986241;28;20214;-68
2023/02/22 05:35:36;;;;;;;34.50;14.23;;;;;;;8.11;100.00;101570.44;4989637;28;20670;-68
2023/02/22 05:38:03;;;;;;;37.27;13.67;;;;;;;8.12;100.00;101572.16;4986606;28;20192;-69
2023/02/22 05:40:29;;;;;;;36.50;13.80;;;;;;;8.11;100.00;101572.97;4989879;28;20192;-68
2023/02/22 05:42:56;;;;;;;39.90;14.90;;;;;;;8.08;100.00;101578.84;4988462;28;20250;-68
2023/02/22 05:45:24;;;;;;;31.37;14.70;;;;;;;8.08;100.00;101583.06;4983158;28;20216;-68
2023/02/22 05:47:50;;;;;;;37.57;14.10;;;;;;;8.10;100.00;101578.88;4987301;28;20250;-68
2023/02/22 05:50:17;;;;;;;34.43;13.90;;;;;;;8.11;100.00;101572.97;4983120;28;20187;-69
2023/02/22 05:52:42;;;;;;;36.67;14.00;;;;;;;8.10;100.00;101574.66;4986200;28;20196;-68
2023/02/22 05:55:09;;;;;;;31.43;12.93;;;;;;;8.10;100.00;101577.19;4986669;28;20711;-69
2023/02/22 05:57:35;;;;;;;36.27;13.53;;;;;;;8.10;100.00;101579.75;4985557;28;20197;-69
2023/02/22 06:00:04;;;;;;;33.17;14.03;;;;;;;8.08;100.00;101568.63;4988018;28;20223;-68
2023/02/22 06:02:38;;;;;;;34.53;12.83;;;;;;;8.09;100.00;101567.81;4990477;28;20288;-69
2023/02/22 06:05:03;;;;;;;36.80;13.00;;;;;;;8.10;100.00;101567.00;4984010;28;20196;-68
2023/02/22 06:07:29;;;;;;;31.90;14.23;;;;;;;8.11;100.00;101568.72;4985711;28;20197;-69
2023/02/22 06:09:54;;;;;;;38.33;14.20;;;;;;;8.09;100.00;101572.03;4984490;28;20191;-68
2023/02/22 06:12:20;;;;;;;35.10;13.90;;;;;;;8.10;100.00;101568.66;4982427;28;20247;-65
2023/02/22 06:14:45;;;;;;;37.43;14.57;;;;;;;8.09;100.00;101572.91;4987391;28;20223;-69
2023/02/22 06:17:13;;;;;;;37.60;15.27;;;;;;;8.09;100.00;101569.47;4986917;28;20192;-66
2023/02/22 06:19:39;;;;;;;32.10;13.20;;;;;;;8.10;100.00;101569.56;4981429;28;20214;-69
2023/02/22 06:22:05;;;;;;;35.20;14.03;;;;;;;8.10;100.00;101574.66;4988510;28;20216;-68
2023/02/22 06:24:32;;;;;;;36.30;13.97;;;;;;;8.10;100.00;101572.09;4983755;28;20197;-69
2023/02/22 06:27:00;;;;;;;40.73;13.47;;;;;;;8.09;100.00;101570.38;4989720;28;20200;-69
2023/02/22 06:29:27;;;;;;;34.37;13.50;;;;;;;8.10;100.00;101572.09;4982636;28;20198;-69
2023/02/22 06:31:52;;;;;;;38.43;15.67;;;;;;;8.10;100.00;101571.22;4989561;28;20641;-70
2023/02/22 06:34:18;;;;;;;32.13;14.27;;;;;;;8.10;100.00;101578.88;4982784;28;20193;-69
2023/02/22 06:36:46;;;;;;;43.07;15.27;;;;;;;8.11;100.00;101583.19;4990589;28;20192;-70
2023/02/22 06:39:14;;;;;;;37.37;14.17;;;;;;;8.11;100.00;101581.50;4983024;28;20240;-70
2023/02/22 06:41:41;;;;;;;40.73;14.07;;;;;;;8.11;100.00;101578.09;4989383;28;20219;-69
2023/02/22 06:44:07;;;;;;;40.80;14.97;;;;;;;8.09;100.00;101577.13;4984782;28;20582;-70
2023/02/22 06:46:32;;;;;;;37.17;14.37;;;;;;;8.09;100.00;101579.69;4988307;28;20200;-70
2023/02/22 06:48:58;;;;;;;33.00;14.63;;;;;;;8.11;100.00;101580.63;4989356;28;20188;-69
2023/02/22 06:51:27;;;;;;;36.20;15.00;;;;;;;8.12;100.00;101584.91;4987073;28;20266;-69
2023/02/22 06:53:53;;;;;;;36.77;14.63;;;;;;;8.09;100.00;101580.56;4983164;28;20199;-69
2023/02/22 06:56:19;;;;;;;40.17;15.07;;;;;;;8.10;100.00;101583.97;4986274;28;20558;-70
2023/02/22 06:58:45;;;;;;;39.03;15.63;;;;;;;8.08;100.00;101578.84;4986497;28;20204;-69
2023/02/22 07:01:11;;;;;;;39.43;15.90;;;;;;;8.10;100.00;101574.66;4970045;28;20697;-67
2023/02/22 07:03:36;;;;;;;37.03;16.17;;;;;;;8.13;100.00;101577.34;4988120;28;20654;-67
2023/02/22 07:06:03;;;;;;;42.80;17.40;;;;;;;8.13;100.00;101576.47;4987513;28;20192;-70
2023/02/22 07:08:29;;;;;;;37.07;16.40;;;;;;;8.14;100.00;101573.97;4985374;28;20189;-66
2023/02/22 07:10:55;;;;;;;37.60;15.77;;;;;;;8.15;100.00;101577.41;4987930;28;20238;-67
2023/02/22 07:13:21;;;;;;;39.83;16.00;;;;;;;8.17;100.00;101578.31;4985695;28;20200;-65
2023/02/22 07:15:46;;;;;;;37.73;15.30;;;;;;;8.15;100.00;101579.97;4987745;28;20259;-70
2023/02/22 07:18:12;;;;;;;37.30;14.03;;;;;;;8.17;100.00;101581.75;4985732;28;20204;-70
2023/02/22 07:20:38;;;;;;;38.20;14.77;;;;;;;8.20;100.00;101581.00;4984066;28;20257;-70
2023/02/22 07:23:04;;;;;;;36.93;14.57;;;;;;;8.20;100.00;101581.91;4989315;28;20227;-69
2023/02/22 07:25:30;;;;;;;40.50;15.57;;;;;;;8.20;100.00;101576.78;4981953;28;20535;-70
2023/02/22 07:27:56;;;;;;;39.13;15.27;;;;;;;8.22;100.00;101579.41;4988733;28;20218;-69
2023/02/22 07:30:29;;;;;;;42.80;15.97;;;;;;;8.21;100.00;101575.97;4982228;28;20271;-69
2023/02/22 07:32:57;;;;;;;39.30;16.60;;;;;;;8.21;100.00;101586.19;4989953;28;20195;-70
2023/02/22 07:35:28;;;;;;;39.03;16.27;;;;;;;8.23;100.00;101582.03;4980686;28;20625;-70
2023/02/22 07:37:54;;;;;;;43.70;16.23;;;;;;;8.23;100.00;101582.03;4988458;28;20199;-69
2023/02/22 07:40:20;;;;;;;42.37;15.97;;;;;;;8.26;100.00;101582.16;4982301;28;20650;-71
2023/02/22 07:42:50;;;;;;;40.73;16.20;;;;;;;8.28;100.00;101575.44;4988833;28;20649;-68
2023/02/22 07:45:17;;;;;;;42.43;16.70;;;;;;;8.29;100.00;101571.22;4982518;28;20195;-68
2023/02/22 07:47:42;;;;;;;45.97;18.20;;;;;;;8.31;100.00;101575.56;4988279;28;20223;-68
2023/02/22 07:50:08;;;;;;;44.20;18.07;;;;;;;8.30;100.00;101578.91;4983618;28;20227;-69
2023/02/22 07:52:33;;;;;;;47.97;18.83;;;;;;;8.33;100.00;101573.06;4986281;28;20220;-70
2023/02/22 07:54:59;;;;;;;47.67;19.00;;;;;;;8.37;100.00;101568.16;4984885;28;20196;-69
2023/02/22 07:57:25;;;;;;;50.97;19.30;;;;;;;8.40;100.00;101565.72;4988693;28;20192;-68
2023/02/22 07:59:50;;;;;;;52.40;19.40;;;;;;;8.42;100.00;101561.53;4986228;28;20211;-68
2023/02/22 08:02:16;;;;;;;53.30;19.80;;;;;;;8.45;100.00;101566.78;4986590;28;20230;-69
2023/02/22 08:04:41;;;;;;;55.33;21.43;;;;;;;8.48;100.00;101573.69;4986255;28;20195;-69
2023/02/22 08:07:07;;;;;;;52.27;19.43;;;;;;;8.52;100.00;101562.78;4986866;28;20323;-70
2023/02/22 08:09:32;;;;;;;52.80;19.77;;;;;;;8.57;100.00;101566.38;4985157;28;20283;-70
2023/02/22 08:11:58;;;;;;;50.27;18.90;;;;;;;8.57;100.00;101557.03;4983449;28;20222;-69
2023/02/22 08:14:23;;;;;;;52.07;20.17;;;;;;;8.60;100.00;101554.59;4984108;28;20220;-70
2023/02/22 08:16:48;;;;;;;48.80;19.10;;;;;;;8.62;100.00;101545.31;4986665;28;20223;-70
2023/02/22 08:19:14;;;;;;;51.77;22.43;;;;;;;8.69;100.00;101547.28;4985343;28;20387;-69
2023/02/22 08:21:39;;;;;;;56.20;21.17;;;;;;;8.67;100.00;101545.50;4981154;28;20254;-70
2023/02/22 08:24:05;;;;;;;54.67;20.37;;;;;;;8.69;100.00;101534.53;4985661;28;20191;-70
2023/02/22 08:26:30;;;;;;;56.23;21.17;;;;;;;8.75;100.00;101541.56;4979472;28;20581;-69
2023/02/22 08:28:56;;;;;;;52.63;19.90;;;;;;;8.76;100.00;101539.03;4988813;28;20188;-69
2023/02/22 08:31:21;;;;;;;55.90;22.10;;;;;;;8.79;100.00;101538.28;4980153;28;20247;-67
2023/02/22 08:33:48;;;;;;;63.67;21.00;;;;;;;8.84;100.00;101535.09;4984252;28;20191;-69
2023/02/22 08:36:14;;;;;;;57.03;20.97;;;;;;;8.85;100.00;101535.97;4981100;28;20688;-69
2023/02/22 08:38:40;;;;;;;59.53;22.10;;;;;;;8.91;100.00;101531.97;4986972;28;20845;-69
2023/02/22 08:41:06;;;;;;;51.03;21.60;;;;;;;9.03;100.00;101531.56;4984455;28;20203;-67
2023/02/22 08:43:31;;;;;;;52.93;21.60;;;;;;;9.13;100.00;101528.50;4985774;28;20184;-69
2023/02/22 08:45:56;;;;;;;55.60;21.93;;;;;;;9.14;100.00;101526.00;4971209;28;20192;-70
2023/02/22 08:48:22;;;;;;;55.50;22.00;;;;;;;9.13;100.00;101526.81;4984516;28;20269;-69
2023/02/22 08:50:48;;;;;;;48.90;21.23;;;;;;;9.07;100.00;101525.75;4984855;28;20211;-69
2023/02/22 08:53:15;;;;;;;50.00;21.17;;;;;;;9.14;100.00;101532.78;4984582;28;20661;-70
2023/02/22 08:55:41;;;;;;;47.23;20.07;;;;;;;9.11;100.00;101527.56;4983942;28;20227;-69
2023/02/22 08:58:10;;;;;;;46.77;21.20;;;;;;;9.08;100.00;101530.03;4985166;28;20223;-69
2023/02/22 09:00:37;;;;;;;46.27;20.30;;;;;;;9.08;100.00;101530.88;4981537;28;20255;-69
2023/02/22 09:03:05;;;;;;;48.33;21.40;;;;;;;9.06;100.00;101531.63;4987143;28;20223;-70
2023/02/22 09:05:31;;;;;;;42.23;20.70;;;;;;;9.07;100.00;101535.97;4987777;28;20227;-69
2023/02/22 09:07:57;;;;;;;47.43;21.57;;;;;;;9.10;100.00;101530.94;4989256;28;20661;-68
2023/02/22 09:10:25;;;;;;;42.43;20.17;;;;;;;9.13;100.00;101531.06;4970374;28;20346;-68
2023/02/22 09:12:54;;;;;;;43.97;22.03;;;;;;;9.16;100.00;101528.59;4989159;28;20196;-69
2023/02/22 09:15:20;;;;;;;44.70;21.03;;;;;;;9.18;100.00;101532.09;4987574;28;20196;-69
2023/02/22 09:17:46;;;;;;;42.43;19.63;;;;;;;9.19;100.00;101529.59;4989806;28;20196;-69
2023/02/22 09:20:13;;;;;;;41.23;18.90;;;;;;;9.24;100.00;101537.41;4988807;28;20230;-70
2023/02/22 09:22:39;;;;;;;41.10;18.73;;;;;;;9.27;100.00;101538.38;4983712;28;20250;-70
2023/02/22 09:25:06;;;;;;;40.20;19.47;;;;;;;9.30;100.00;101530.84;4986322;28;20196;-70
2023/02/22 09:27:31;;;;;;;42.10;18.87;;;;;;;9.34;100.00;101535.25;4983373;28;20251;-69
2023/02/22 09:29:57;;;;;;;35.90;18.27;;;;;;;9.38;100.00;101531.97;4975046;28;20191;-70
2023/02/22 09:32:26;;;;;;;36.53;18.23;;;;;;;9.44;100.00;101529.63;4997405;28;20216;-69
2023/02/22 09:34:52;;;;;;;37.43;19.43;;;;;;;9.49;100.00;101529.81;4990393;28;20188;-68
2023/02/22 09:37:18;;;;;;;39.03;19.83;;;;;;;9.53;100.00;101527.38;4985029;28;20224;-66
2023/02/22 09:39:43;;;;;;;39.10;19.07;;;;;;;9.57;100.00;101524.13;4986504;28;20231;-68
2023/02/22 09:42:20;;;;;;;36.63;18.00;;;;;;;9.56;100.00;101519.84;4985414;28;20260;-70
2023/02/22 09:45:21;;;;;;;35.07;17.90;;;;;;;9.63;100.00;101519.22;4989223;28;20195;-70
2023/02/22 09:47:55;;;;;;;38.80;19.00;;;;;;;9.57;100.00;101519.00;4988226;28;20653;-69
2023/02/22 09:50:23;;;;;;;34.23;17.80;;;;;;;9.54;100.00;101523.16;4988932;28;20187;-69
2023/02/22 09:52:59;;;;;;;36.77;18.50;;;;;;;9.57;100.00;101513.03;4985660;28;20281;-69
2023/02/22 09:55:40;;;;;;;40.90;20.07;;;;;;;9.54;100.00;101518.06;4987339;28;20255;-69
2023/02/22 09:58:33;;;;;;;42.20;19.80;;;;;;;9.59;100.00;101526.75;4981490;28;20657;-69
2023/02/22 10:01:23;;;;;;;41.10;20.57;;;;;;;9.59;100.00;101525.03;4983934;28;20251;-66
2023/02/22 10:03:57;;;;;;;38.60;18.90;;;;;;;9.60;100.00;101513.13;4987928;28;20187;-67
2023/02/22 10:06:23;;;;;;;38.33;20.03;;;;;;;9.73;100.00;101516.13;4987444;28;20677;-70
2023/02/22 10:08:55;;;;;;;38.73;20.73;;;;;;;9.86;100.00;101513.16;4984248;28;20207;-67
2023/02/22 10:11:39;;;;;;;38.60;20.17;;;;;;;9.87;100.00;101504.69;4986868;28;20640;-70
2023/02/22 10:14:22;;;;;;;37.80;19.17;;;;;;;9.86;100.00;101505.50;4982801;28;20216;-71
2023/02/22 10:17:01;;;;;;;39.47;20.87;;;;;;;9.95;100.00;101500.69;4984593;28;20554;-69
2023/02/22 10:19:54;;;;;;;34.53;19.03;;;;;;;10.09;100.00;101496.91;4985301;28;20212;-70
2023/02/22 10:22:38;;;;;;;34.83;19.10;;;;;;;10.20;100.00;101502.38;4983204;28;20216;-69
2023/02/22 10:25:19;;;;;;;33.23;19.00;;;;;;;10.12;100.00;101497.03;4989338;28;20728;-69
2023/02/22 10:27:51;;;;;;;33.43;18.93;;;;;;;10.21;100.00;101489.63;4986383;28;20242;-69
2023/02/22 10:30:30;;;;;;;35.37;19.20;;;;;;;10.36;100.00;101489.22;4980700;28;20194;-70
2023/02/22 10:33:18;;;;;;;33.80;19.73;;;;;;;10.53;100.00;101481.22;4989298;28;20209;-68
2023/02/22 10:35:45;;;;;;;34.43;18.83;;;;;;;10.53;100.00;101480.34;4991491;28;20195;-68
2023/02/22 10:38:22;;;;;;;33.93;18.77;;;;;;;10.83;100.00;101482.09;4983772;28;20799;-70
2023/02/22 10:41:17;;;;;;;35.03;18.77;;;;;;;11.43;100.00;101483.78;4987258;28;20223;-70
2023/02/22 10:43:43;;;;;;;32.40;18.83;;;;;;;12.80;100.00;101472.50;4985211;28;20280;-69
2023/02/22 10:46:16;;;;;;;30.23;18.70;;;;;;;12.94;100.00;101472.78;4988851;28;20291;-69
2023/02/22 10:48:46;;;;;;;31.20;19.20;;;;;;;12.71;100.00;101474.88;4985066;28;20556;-70
2023/02/22 10:51:12;;;;;;;27.63;17.93;;;;;;;12.78;100.00;101474.19;4988710;28;20230;-70
2023/02/22 10:53:38;;;;;;;30.40;18.57;;;;;;;13.67;100.00;101475.91;4983635;28;20238;-70
2023/02/22 10:56:07;;;;;;;27.43;18.17;;;;;;;14.01;100.00;101472.16;4987912;28;20653;-70
2023/02/22 10:58:50;;;;;;;29.60;18.17;;;;;;;14.68;100.00;101469.75;4983818;28;20222;-69
2023/02/22 11:01:34;;;;;;;27.43;18.27;;;;;;;15.89;100.00;101457.28;5005194;28;20315;-69
2023/02/22 11:04:03;;;;;;;26.47;17.47;;;;;;;17.63;100.00;101452.88;4984349;28;20183;-70
2023/02/22 11:06:31;;;;;;;27.47;17.43;;;;;;;18.14;100.00;101443.34;4987543;28;20222;-68
2023/02/22 11:09:10;;;;;;;24.37;17.07;;;;;;;17.52;100.00;101444.25;4984718;28;20188;-70
2023/02/22 11:11:37;;;;;;;24.90;17.03;;;;;;;15.15;100.00;101463.44;4987535;28;20204;-69
2023/02/22 11:14:05;;;;;;;28.67;18.83;;;;;;;13.64;100.00;101463.00;4984453;28;20180;-70
2023/02/22 11:16:35;;;;;;;31.50;19.47;;;;;;;15.27;100.00;101460.97;4985737;28;20251;-70
2023/02/22 11:19:24;;;;;;;27.43;18.63;;;;;;;14.57;100.00;101450.69;4982899;28;20207;-69
2023/02/22 11:21:55;;;;;;;28.47;20.00;;;;;;;14.36;100.00;101453.84;4985755;28;20240;-70